sensor_id;sensor_type;location;lat;lon;timestamp;P1;durP1;ratioP1;P2;durP2;ratioP2
20179;SDS011;10249;48.900;9.090;2023-09-08T00:00:32;11.40;;;11.00;;
20179;SDS011;10249;48.900;9.090;2023-09-08T00:03:01;11.63;;;11.23;;
20179;SDS011;10249;48.900;9.090;2023-09-08T00:05:28;11.30;;;10.90;;
20179;SDS011;10249;48.900;9.090;2023-09-08T00:07:55;11.33;;;10.93;;
20179;SDS011;10249;48.900;9.090;2023-09-08T00:10:22;11.03;;;10.63;;
20179;SDS011;10249;48.900;9.090;2023-09-08T00:12:49;11.03;;;10.63;;
20179;SDS011;10249;48.900;9.090;2023-09-08T00:15:16;11.40;;;11.00;;
20179;SDS011;10249;48.900;9.090;2023-09-08T00:17:43;11.10;;;10.70;;
20179;SDS011;10249;48.900;9.090;2023-09-08T00:20:13;11.47;;;11.07;;
20179;SDS011;10249;48.900;9.090;2023-09-08T00:22:40;11.23;;;10.83;;
20179;SDS011;10249;48.900;9.090;2023-09-08T00:25:08;11.27;;;10.87;;
20179;SDS011;10249;48.900;9.090;2023-09-08T00:27:35;11.20;;;10.80;;
20179;SDS011;10249;48.900;9.090;2023-09-08T00:30:02;11.40;;;11.00;;
20179;SDS011;10249;48.900;9.090;2023-09-08T00:32:29;11.70;;;11.30;;
20179;SDS011;10249;48.900;9.090;2023-09-08T00:34:56;11.40;;;11.00;;
20179;SDS011;10249;48.900;9.090;2023-09-08T00:37:25;11.30;;;10.90;;
20179;SDS011;10249;48.900;9.090;2023-09-08T00:39:52;11.27;;;10.87;;
20179;SDS011;10249;48.900;9.090;2023-09-08T00:42:19;11.20;;;10.80;;
20179;SDS011;10249;48.900;9.090;2023-09-08T00:44:46;10.90;;;10.50;;
20179;SDS011;10249;48.900;9.090;2023-09-08T00:47:13;11.03;;;10.63;;
20179;SDS011;10249;48.900;9.090;2023-09-08T00:49:40;10.93;;;10.53;;
20179;SDS011;10249;48.900;9.090;2023-09-08T00:52:07;10.80;;;10.40;;
20179;SDS011;10249;48.900;9.090;2023-09-08T00:54:36;10.60;;;10.20;;
20179;SDS011;10249;48.900;9.090;2023-09-08T00:57:03;10.80;;;10.40;;
20179;SDS011;10249;48.900;9.090;2023-09-08T00:59:31;10.97;;;10.57;;
20179;SDS011;10249;48.900;9.090;2023-09-08T01:01:58;10.80;;;10.40;;
20179;SDS011;10249;48.900;9.090;2023-09-08T01:04:25;10.80;;;10.40;;
20179;SDS011;10249;48.900;9.090;2023-09-08T01:06:53;11.07;;;10.67;;
20179;SDS011;10249;48.900;9.090;2023-09-08T01:09:21;10.90;;;10.50;;
20179;SDS011;10249;48.900;9.090;2023-09-08T01:11:49;10.80;;;10.40;;
20179;SDS011;10249;48.900;9.090;2023-09-08T01:14:17;10.80;;;10.40;;
20179;SDS011;10249;48.900;9.090;2023-09-08T01:16:44;10.90;;;10.50;;
20179;SDS011;10249;48.900;9.090;2023-09-08T01:19:12;10.70;;;10.30;;
20179;SDS011;10249;48.900;9.090;2023-09-08T01:22:05;11.00;;;10.60;;
20179;SDS011;10249;48.900;9.090;2023-09-08T01:27:22;11.10;;;10.70;;
20179;SDS011;10249;48.900;9.090;2023-09-08T01:29:51;11.10;;;10.70;;
20179;SDS011;10249;48.900;9.090;2023-09-08T01:32:18;11.17;;;10.77;;
20179;SDS011;10249;48.900;9.090;2023-09-08T01:34:46;10.93;;;10.53;;
20179;SDS011;10249;48.900;9.090;2023-09-08T01:37:13;11.07;;;10.67;;
20179;SDS011;10249;48.900;9.090;2023-09-08T01:39:40;10.40;;;10.10;;
20179;SDS011;10249;48.900;9.090;2023-09-08T01:42:07;10.80;;;10.40;;
20179;SDS011;10249;48.900;9.090;2023-09-08T01:44:36;10.63;;;10.23;;
20179;SDS011;10249;48.900;9.090;2023-09-08T01:47:03;10.73;;;10.33;;
20179;SDS011;10249;48.900;9.090;2023-09-08T01:49:30;10.53;;;10.17;;
20179;SDS011;10249;48.900;9.090;2023-09-08T01:51:57;10.80;;;10.40;;
20179;SDS011;10249;48.900;9.090;2023-09-08T01:54:24;10.60;;;10.20;;
20179;SDS011;10249;48.900;9.090;2023-09-08T01:56:52;10.70;;;10.30;;
20179;SDS011;10249;48.900;9.090;2023-09-08T01:59:19;11.03;;;10.63;;
20179;SDS011;10249;48.900;9.090;2023-09-08T02:01:47;10.80;;;10.40;;
20179;SDS011;10249;48.900;9.090;2023-09-08T02:04:14;10.93;;;10.53;;
20179;SDS011;10249;48.900;9.090;2023-09-08T02:06:41;10.57;;;10.20;;
20179;SDS011;10249;48.900;9.090;2023-09-08T02:09:08;10.00;;;9.70;;
20179;SDS011;10249;48.900;9.090;2023-09-08T02:11:36;10.20;;;9.90;;
20179;SDS011;10249;48.900;9.090;2023-09-08T02:14:04;10.10;;;9.80;;
20179;SDS011;10249;48.900;9.090;2023-09-08T02:16:31;10.53;;;10.17;;
20179;SDS011;10249;48.900;9.090;2023-09-08T02:18:59;10.17;;;9.87;;
20179;SDS011;10249;48.900;9.090;2023-09-08T02:21:26;10.00;;;9.70;;
20179;SDS011;10249;48.900;9.090;2023-09-08T02:23:53;10.63;;;10.23;;
20179;SDS011;10249;48.900;9.090;2023-09-08T02:26:20;10.10;;;9.80;;
20179;SDS011;10249;48.900;9.090;2023-09-08T02:28:47;9.80;;;9.50;;
20179;SDS011;10249;48.900;9.090;2023-09-08T02:31:15;9.50;;;9.20;;
20179;SDS011;10249;48.900;9.090;2023-09-08T02:33:42;10.10;;;9.80;;
20179;SDS011;10249;48.900;9.090;2023-09-08T02:36:10;9.80;;;9.50;;
20179;SDS011;10249;48.900;9.090;2023-09-08T02:38:37;10.00;;;9.70;;
20179;SDS011;10249;48.900;9.090;2023-09-08T02:41:04;9.97;;;9.67;;
20179;SDS011;10249;48.900;9.090;2023-09-08T02:43:31;9.90;;;9.60;;
20179;SDS011;10249;48.900;9.090;2023-09-08T02:45:58;9.97;;;9.67;;
20179;SDS011;10249;48.900;9.090;2023-09-08T02:48:25;10.30;;;10.00;;
20179;SDS011;10249;48.900;9.090;2023-09-08T02:50:52;10.37;;;10.07;;
20179;SDS011;10249;48.900;9.090;2023-09-08T02:53:21;10.43;;;10.10;;
20179;SDS011;10249;48.900;9.090;2023-09-08T02:55:48;10.30;;;10.00;;
20179;SDS011;10249;48.900;9.090;2023-09-08T02:58:15;10.37;;;10.07;;
20179;SDS011;10249;48.900;9.090;2023-09-08T03:00:42;10.30;;;10.00;;
20179;SDS011;10249;48.900;9.090;2023-09-08T03:03:09;10.50;;;10.10;;
20179;SDS011;10249;48.900;9.090;2023-09-08T03:05:36;10.10;;;9.80;;
20179;SDS011;10249;48.900;9.090;2023-09-08T03:08:03;10.43;;;10.07;;
20179;SDS011;10249;48.900;9.090;2023-09-08T03:10:32;10.30;;;10.00;;
20179;SDS011;10249;48.900;9.090;2023-09-08T03:13:00;10.20;;;9.90;;
20179;SDS011;10249;48.900;9.090;2023-09-08T03:15:27;9.90;;;9.60;;
20179;SDS011;10249;48.900;9.090;2023-09-08T03:17:54;9.90;;;9.60;;
20179;SDS011;10249;48.900;9.090;2023-09-08T03:20:22;10.03;;;9.73;;
20179;SDS011;10249;48.900;9.090;2023-09-08T03:22:49;9.90;;;9.60;;
20179;SDS011;10249;48.900;9.090;2023-09-08T03:25:16;9.73;;;9.43;;
20179;SDS011;10249;48.900;9.090;2023-09-08T03:27:44;10.10;;;9.80;;
20179;SDS011;10249;48.900;9.090;2023-09-08T03:30:12;9.83;;;9.53;;
20179;SDS011;10249;48.900;9.090;2023-09-08T03:32:39;9.77;;;9.47;;
20179;SDS011;10249;48.900;9.090;2023-09-08T03:35:07;9.70;;;9.40;;
20179;SDS011;10249;48.900;9.090;2023-09-08T03:37:34;9.77;;;9.47;;
20179;SDS011;10249;48.900;9.090;2023-09-08T03:40:01;9.83;;;9.53;;
20179;SDS011;10249;48.900;9.090;2023-09-08T03:42:30;10.27;;;9.97;;
20179;SDS011;10249;48.900;9.090;2023-09-08T03:44:58;10.10;;;9.80;;
20179;SDS011;10249;48.900;9.090;2023-09-08T03:47:26;10.10;;;9.80;;
20179;SDS011;10249;48.900;9.090;2023-09-08T03:49:53;10.10;;;9.80;;
20179;SDS011;10249;48.900;9.090;2023-09-08T03:52:20;9.53;;;9.23;;
20179;SDS011;10249;48.900;9.090;2023-09-08T03:54:48;9.27;;;8.97;;
20179;SDS011;10249;48.900;9.090;2023-09-08T03:57:15;9.20;;;8.90;;
20179;SDS011;10249;48.900;9.090;2023-09-08T03:59:42;9.33;;;9.03;;
20179;SDS011;10249;48.900;9.090;2023-09-08T04:02:10;9.00;;;8.70;;
20179;SDS011;10249;48.900;9.090;2023-09-08T04:04:37;9.10;;;8.80;;
20179;SDS011;10249;48.900;9.090;2023-09-08T04:07:04;9.43;;;9.13;;
20179;SDS011;10249;48.900;9.090;2023-09-08T04:09:31;9.40;;;9.10;;
20179;SDS011;10249;48.900;9.090;2023-09-08T04:11:59;9.57;;;9.27;;
20179;SDS011;10249;48.900;9.090;2023-09-08T04:14:26;9.30;;;9.00;;
20179;SDS011;10249;48.900;9.090;2023-09-08T04:16:53;9.00;;;8.70;;
20179;SDS011;10249;48.900;9.090;2023-09-08T04:19:22;9.50;;;9.20;;
20179;SDS011;10249;48.900;9.090;2023-09-08T04:21:49;9.40;;;9.10;;
20179;SDS011;10249;48.900;9.090;2023-09-08T04:24:16;9.47;;;9.17;;
20179;SDS011;10249;48.900;9.090;2023-09-08T04:26:43;9.70;;;9.40;;
20179;SDS011;10249;48.900;9.090;2023-09-08T04:29:10;9.57;;;9.27;;
20179;SDS011;10249;48.900;9.090;2023-09-08T04:31:37;9.90;;;9.60;;
20179;SDS011;10249;48.900;9.090;2023-09-08T04:34:04;9.80;;;9.50;;
20179;SDS011;10249;48.900;9.090;2023-09-08T04:36:33;10.50;;;10.10;;
20179;SDS011;10249;48.900;9.090;2023-09-08T04:39:00;10.10;;;9.80;;
20179;SDS011;10249;48.900;9.090;2023-09-08T04:41:27;10.33;;;9.93;;
20179;SDS011;10249;48.900;9.090;2023-09-08T04:43:54;10.50;;;10.10;;
20179;SDS011;10249;48.900;9.090;2023-09-08T04:46:23;9.97;;;9.67;;
20179;SDS011;10249;48.900;9.090;2023-09-08T04:48:50;9.93;;;9.63;;
20179;SDS011;10249;48.900;9.090;2023-09-08T04:51:17;10.10;;;9.80;;
20179;SDS011;10249;48.900;9.090;2023-09-08T04:53:45;9.97;;;9.67;;
20179;SDS011;10249;48.900;9.090;2023-09-08T04:56:13;10.53;;;10.13;;
20179;SDS011;10249;48.900;9.090;2023-09-08T04:58:40;10.63;;;10.23;;
20179;SDS011;10249;48.900;9.090;2023-09-08T05:01:07;10.30;;;9.90;;
20179;SDS011;10249;48.900;9.090;2023-09-08T05:03:34;10.50;;;10.10;;
20179;SDS011;10249;48.900;9.090;2023-09-08T05:06:01;10.50;;;10.10;;
20179;SDS011;10249;48.900;9.090;2023-09-08T05:08:28;10.70;;;10.30;;
20179;SDS011;10249;48.900;9.090;2023-09-08T05:10:57;10.70;;;10.30;;
20179;SDS011;10249;48.900;9.090;2023-09-08T05:13:24;10.93;;;10.53;;
20179;SDS011;10249;48.900;9.090;2023-09-08T05:15:52;11.30;;;10.90;;
20179;SDS011;10249;48.900;9.090;2023-09-08T05:18:25;11.27;;;10.87;;
20179;SDS011;10249;48.900;9.090;2023-09-08T05:20:52;11.20;;;10.80;;
20179;SDS011;10249;48.900;9.090;2023-09-08T05:23:19;11.00;;;10.60;;
20179;SDS011;10249;48.900;9.090;2023-09-08T05:25:46;11.20;;;10.80;;
20179;SDS011;10249;48.900;9.090;2023-09-08T05:28:15;11.30;;;10.90;;
20179;SDS011;10249;48.900;9.090;2023-09-08T05:30:42;11.60;;;11.20;;
20179;SDS011;10249;48.900;9.090;2023-09-08T05:33:09;11.20;;;10.80;;
20179;SDS011;10249;48.900;9.090;2023-09-08T05:35:36;11.07;;;10.67;;
20179;SDS011;10249;48.900;9.090;2023-09-08T05:38:03;11.23;;;10.83;;
20179;SDS011;10249;48.900;9.090;2023-09-08T05:40:31;11.20;;;10.80;;
20179;SDS011;10249;48.900;9.090;2023-09-08T05:42:58;11.00;;;10.60;;
20179;SDS011;10249;48.900;9.090;2023-09-08T05:45:26;10.70;;;10.30;;
20179;SDS011;10249;48.900;9.090;2023-09-08T05:47:55;10.47;;;10.07;;
20179;SDS011;10249;48.900;9.090;2023-09-08T05:50:22;10.03;;;9.73;;
20179;SDS011;10249;48.900;9.090;2023-09-08T05:52:50;10.00;;;9.70;;
20179;SDS011;10249;48.900;9.090;2023-09-08T05:55:17;9.77;;;9.47;;
20179;SDS011;10249;48.900;9.090;2023-09-08T05:57:45;9.80;;;9.50;;
20179;SDS011;10249;48.900;9.090;2023-09-08T06:00:13;9.80;;;9.50;;
20179;SDS011;10249;48.900;9.090;2023-09-08T06:02:42;9.80;;;9.50;;
20179;SDS011;10249;48.900;9.090;2023-09-08T06:05:09;9.77;;;9.47;;
20179;SDS011;10249;48.900;9.090;2023-09-08T06:07:36;9.90;;;9.60;;
20179;SDS011;10249;48.900;9.090;2023-09-08T06:10:03;9.80;;;9.50;;
20179;SDS011;10249;48.900;9.090;2023-09-08T06:12:30;9.90;;;9.60;;
20179;SDS011;10249;48.900;9.090;2023-09-08T06:14:57;10.80;;;10.40;;
20179;SDS011;10249;48.900;9.090;2023-09-08T06:17:24;10.60;;;10.20;;
20179;SDS011;10249;48.900;9.090;2023-09-08T06:19:52;10.90;;;10.50;;
20179;SDS011;10249;48.900;9.090;2023-09-08T06:22:20;11.10;;;10.70;;
20179;SDS011;10249;48.900;9.090;2023-09-08T06:24:47;12.00;;;11.60;;
20179;SDS011;10249;48.900;9.090;2023-09-08T06:27:14;11.80;;;11.40;;
20179;SDS011;10249;48.900;9.090;2023-09-08T06:29:41;11.70;;;11.30;;
20179;SDS011;10249;48.900;9.090;2023-09-08T06:32:09;11.90;;;11.50;;
20179;SDS011;10249;48.900;9.090;2023-09-08T06:34:37;11.60;;;11.20;;
20179;SDS011;10249;48.900;9.090;2023-09-08T06:37:05;11.87;;;11.47;;
20179;SDS011;10249;48.900;9.090;2023-09-08T06:39:33;12.30;;;11.80;;
20179;SDS011;10249;48.900;9.090;2023-09-08T06:42:01;12.30;;;11.80;;
20179;SDS011;10249;48.900;9.090;2023-09-08T06:44:29;12.27;;;11.77;;
20179;SDS011;10249;48.900;9.090;2023-09-08T06:46:56;12.20;;;11.80;;
20179;SDS011;10249;48.900;9.090;2023-09-08T06:49:23;12.30;;;11.80;;
20179;SDS011;10249;48.900;9.090;2023-09-08T06:51:50;12.00;;;11.60;;
20179;SDS011;10249;48.900;9.090;2023-09-08T06:54:18;12.60;;;12.10;;
20179;SDS011;10249;48.900;9.090;2023-09-08T06:56:45;12.30;;;11.80;;
20179;SDS011;10249;48.900;9.090;2023-09-08T06:59:12;12.63;;;12.13;;
20179;SDS011;10249;48.900;9.090;2023-09-08T07:01:39;12.47;;;11.97;;
20179;SDS011;10249;48.900;9.090;2023-09-08T07:04:07;12.60;;;12.10;;
20179;SDS011;10249;48.900;9.090;2023-09-08T07:06:34;12.70;;;12.20;;
20179;SDS011;10249;48.900;9.090;2023-09-08T07:09:03;12.77;;;12.27;;
20179;SDS011;10249;48.900;9.090;2023-09-08T07:11:32;12.80;;;12.30;;
20179;SDS011;10249;48.900;9.090;2023-09-08T07:13:59;13.00;;;12.50;;
20179;SDS011;10249;48.900;9.090;2023-09-08T07:16:26;13.10;;;12.60;;
20179;SDS011;10249;48.900;9.090;2023-09-08T07:18:53;13.13;;;12.63;;
20179;SDS011;10249;48.900;9.090;2023-09-08T07:21:20;13.60;;;13.10;;
20179;SDS011;10249;48.900;9.090;2023-09-08T07:23:47;13.50;;;13.00;;
20179;SDS011;10249;48.900;9.090;2023-09-08T07:26:14;13.70;;;13.20;;
20179;SDS011;10249;48.900;9.090;2023-09-08T07:28:43;13.63;;;13.13;;
20179;SDS011;10249;48.900;9.090;2023-09-08T07:31:10;13.60;;;13.10;;
20179;SDS011;10249;48.900;9.090;2023-09-08T07:33:37;13.67;;;13.17;;
20179;SDS011;10249;48.900;9.090;2023-09-08T07:36:04;14.13;;;13.53;;
20179;SDS011;10249;48.900;9.090;2023-09-08T07:38:31;14.33;;;13.73;;
20179;SDS011;10249;48.900;9.090;2023-09-08T07:40:57;14.40;;;13.80;;
20179;SDS011;10249;48.900;9.090;2023-09-08T07:43:25;14.53;;;13.93;;
20179;SDS011;10249;48.900;9.090;2023-09-08T07:45:54;14.37;;;13.77;;
20179;SDS011;10249;48.900;9.090;2023-09-08T07:48:21;14.50;;;13.90;;
20179;SDS011;10249;48.900;9.090;2023-09-08T07:50:48;14.37;;;13.77;;
20179;SDS011;10249;48.900;9.090;2023-09-08T07:53:15;14.70;;;14.10;;
20179;SDS011;10249;48.900;9.090;2023-09-08T07:55:42;14.23;;;13.63;;
20179;SDS011;10249;48.900;9.090;2023-09-08T07:58:09;14.33;;;13.73;;
20179;SDS011;10249;48.900;9.090;2023-09-08T08:00:36;14.00;;;13.40;;
20179;SDS011;10249;48.900;9.090;2023-09-08T08:03:05;14.13;;;13.53;;
20179;SDS011;10249;48.900;9.090;2023-09-08T08:05:33;14.27;;;13.67;;
20179;SDS011;10249;48.900;9.090;2023-09-08T08:08:00;14.13;;;13.53;;
20179;SDS011;10249;48.900;9.090;2023-09-08T08:10:27;14.20;;;13.60;;
20179;SDS011;10249;48.900;9.090;2023-09-08T08:12:55;13.77;;;13.17;;
20179;SDS011;10249;48.900;9.090;2023-09-08T08:15:22;13.60;;;13.00;;
20179;SDS011;10249;48.900;9.090;2023-09-08T08:17:49;13.63;;;13.03;;
20179;SDS011;10249;48.900;9.090;2023-09-08T08:20:17;13.57;;;12.97;;
20179;SDS011;10249;48.900;9.090;2023-09-08T08:22:45;13.53;;;12.93;;
20179;SDS011;10249;48.900;9.090;2023-09-08T08:25:12;13.50;;;12.90;;
20179;SDS011;10249;48.900;9.090;2023-09-08T08:27:39;13.33;;;12.73;;
20179;SDS011;10249;48.900;9.090;2023-09-08T08:30:07;13.60;;;13.00;;
20179;SDS011;10249;48.900;9.090;2023-09-08T08:32:36;13.60;;;13.00;;
20179;SDS011;10249;48.900;9.090;2023-09-08T08:35:03;13.70;;;13.10;;
20179;SDS011;10249;48.900;9.090;2023-09-08T08:37:32;13.60;;;13.00;;
20179;SDS011;10249;48.900;9.090;2023-09-08T08:39:59;13.33;;;12.73;;
20179;SDS011;10249;48.900;9.090;2023-09-08T08:42:30;13.37;;;12.77;;
20179;SDS011;10249;48.900;9.090;2023-09-08T08:44:57;13.63;;;13.03;;
20179;SDS011;10249;48.900;9.090;2023-09-08T08:47:25;13.53;;;12.93;;
20179;SDS011;10249;48.900;9.090;2023-09-08T08:49:52;13.60;;;13.00;;
20179;SDS011;10249;48.900;9.090;2023-09-08T08:52:20;13.37;;;12.77;;
20179;SDS011;10249;48.900;9.090;2023-09-08T08:54:48;13.87;;;13.27;;
20179;SDS011;10249;48.900;9.090;2023-09-08T08:57:15;13.60;;;13.00;;
20179;SDS011;10249;48.900;9.090;2023-09-08T08:59:42;13.87;;;13.27;;
20179;SDS011;10249;48.900;9.090;2023-09-08T09:02:10;13.70;;;13.10;;
20179;SDS011;10249;48.900;9.090;2023-09-08T09:04:39;13.55;;;12.95;;
20179;SDS011;10249;48.900;9.090;2023-09-08T09:07:07;13.80;;;13.20;;
20179;SDS011;10249;48.900;9.090;2023-09-08T09:09:34;14.13;;;13.52;;
20179;SDS011;10249;48.900;9.090;2023-09-08T09:12:02;13.88;;;13.27;;
20179;SDS011;10249;48.900;9.090;2023-09-08T09:14:31;13.97;;;13.37;;
20179;SDS011;10249;48.900;9.090;2023-09-08T09:17:00;13.60;;;13.00;;
20179;SDS011;10249;48.900;9.090;2023-09-08T09:19:29;14.15;;;13.55;;
20179;SDS011;10249;48.900;9.090;2023-09-08T09:21:57;13.97;;;13.37;;
20179;SDS011;10249;48.900;9.090;2023-09-08T09:24:31;13.77;;;13.18;;
20179;SDS011;10249;48.900;9.090;2023-09-08T09:26:59;13.93;;;13.32;;
20179;SDS011;10249;48.900;9.090;2023-09-08T09:29:28;13.90;;;13.30;;
20179;SDS011;10249;48.900;9.090;2023-09-08T09:31:56;13.93;;;13.32;;
20179;SDS011;10249;48.900;9.090;2023-09-08T09:34:24;14.02;;;13.43;;
20179;SDS011;10249;48.900;9.090;2023-09-08T09:36:51;14.48;;;13.77;;
20179;SDS011;10249;48.900;9.090;2023-09-08T09:39:19;14.32;;;13.63;;
20179;SDS011;10249;48.900;9.090;2023-09-08T09:41:47;14.40;;;13.70;;
20179;SDS011;10249;48.900;9.090;2023-09-08T09:44:14;14.38;;;13.68;;
20179;SDS011;10249;48.900;9.090;2023-09-08T09:46:45;14.23;;;13.52;;
20179;SDS011;10249;48.900;9.090;2023-09-08T09:49:13;14.30;;;13.60;;
20179;SDS011;10249;48.900;9.090;2023-09-08T09:51:42;14.35;;;13.65;;
20179;SDS011;10249;48.900;9.090;2023-09-08T09:54:09;14.95;;;14.25;;
20179;SDS011;10249;48.900;9.090;2023-09-08T09:56:37;14.50;;;13.80;;
20179;SDS011;10249;48.900;9.090;2023-09-08T09:59:04;14.68;;;13.98;;
20179;SDS011;10249;48.900;9.090;2023-09-08T10:01:32;14.65;;;13.95;;
20179;SDS011;10249;48.900;9.090;2023-09-08T10:04:01;15.00;;;14.20;;
20179;SDS011;10249;48.900;9.090;2023-09-08T10:06:30;14.80;;;14.10;;
20179;SDS011;10249;48.900;9.090;2023-09-08T10:08:58;14.95;;;14.23;;
20179;SDS011;10249;48.900;9.090;2023-09-08T10:11:26;15.55;;;14.75;;
20179;SDS011;10249;48.900;9.090;2023-09-08T10:13:55;15.27;;;14.57;;
20179;SDS011;10249;48.900;9.090;2023-09-08T10:16:22;15.32;;;14.63;;
20179;SDS011;10249;48.900;9.090;2023-09-08T10:18:52;15.40;;;14.70;;
20179;SDS011;10249;48.900;9.090;2023-09-08T10:21:21;15.57;;;14.77;;
20179;SDS011;10249;48.900;9.090;2023-09-08T10:23:53;15.63;;;14.82;;
20179;SDS011;10249;48.900;9.090;2023-09-08T10:26:21;15.70;;;14.90;;
20179;SDS011;10249;48.900;9.090;2023-09-08T10:28:50;15.88;;;15.07;;
20179;SDS011;10249;48.900;9.090;2023-09-08T10:31:20;15.80;;;15.00;;
20179;SDS011;10249;48.900;9.090;2023-09-08T10:33:48;15.80;;;15.00;;
20179;SDS011;10249;48.900;9.090;2023-09-08T10:36:15;15.98;;;15.18;;
20179;SDS011;10249;48.900;9.090;2023-09-08T10:38:43;15.60;;;14.80;;
20179;SDS011;10249;48.900;9.090;2023-09-08T10:41:28;15.60;;;14.80;;
20179;SDS011;10249;48.900;9.090;2023-09-08T10:43:57;15.90;;;15.10;;
20179;SDS011;10249;48.900;9.090;2023-09-08T10:46:28;15.90;;;15.10;;
20179;SDS011;10249;48.900;9.090;2023-09-08T10:49:00;15.98;;;15.18;;
20179;SDS011;10249;48.900;9.090;2023-09-08T10:51:28;15.85;;;15.05;;
20179;SDS011;10249;48.900;9.090;2023-09-08T10:53:56;16.00;;;15.20;;
20179;SDS011;10249;48.900;9.090;2023-09-08T10:56:29;15.60;;;14.88;;
20179;SDS011;10249;48.900;9.090;2023-09-08T10:58:58;15.60;;;14.80;;
20179;SDS011;10249;48.900;9.090;2023-09-08T11:01:26;15.68;;;14.88;;
20179;SDS011;10249;48.900;9.090;2023-09-08T11:03:53;15.57;;;14.77;;
20179;SDS011;10249;48.900;9.090;2023-09-08T11:06:21;16.08;;;15.27;;
20179;SDS011;10249;48.900;9.090;2023-09-08T11:08:48;16.15;;;15.35;;
20179;SDS011;10249;48.900;9.090;2023-09-08T11:11:19;16.10;;;15.30;;
20179;SDS011;10249;48.900;9.090;2023-09-08T11:13:46;16.40;;;15.50;;
20179;SDS011;10249;48.900;9.090;2023-09-08T11:16:13;16.40;;;15.50;;
20179;SDS011;10249;48.900;9.090;2023-09-08T11:18:41;16.30;;;15.50;;
20179;SDS011;10249;48.900;9.090;2023-09-08T11:21:08;16.05;;;15.23;;
20179;SDS011;10249;48.900;9.090;2023-09-08T11:23:35;16.00;;;15.20;;
20179;SDS011;10249;48.900;9.090;2023-09-08T11:26:03;16.15;;;15.35;;
20179;SDS011;10249;48.900;9.090;2023-09-08T11:28:32;16.25;;;15.35;;
20179;SDS011;10249;48.900;9.090;2023-09-08T11:30:59;16.13;;;15.32;;
20179;SDS011;10249;48.900;9.090;2023-09-08T11:33:32;16.38;;;15.48;;
20179;SDS011;10249;48.900;9.090;2023-09-08T11:36:00;16.38;;;15.48;;
20179;SDS011;10249;48.900;9.090;2023-09-08T11:38:27;16.45;;;15.55;;
20179;SDS011;10249;48.900;9.090;2023-09-08T11:40:57;16.10;;;15.30;;
20179;SDS011;10249;48.900;9.090;2023-09-08T11:43:24;16.05;;;15.25;;
20179;SDS011;10249;48.900;9.090;2023-09-08T11:45:53;16.20;;;15.30;;
20179;SDS011;10249;48.900;9.090;2023-09-08T11:48:21;15.82;;;15.02;;
20179;SDS011;10249;48.900;9.090;2023-09-08T11:50:48;16.05;;;15.25;;
20179;SDS011;10249;48.900;9.090;2023-09-08T11:53:18;17.65;;;16.65;;
20179;SDS011;10249;48.900;9.090;2023-09-08T11:55:46;16.35;;;15.50;;
20179;SDS011;10249;48.900;9.090;2023-09-08T11:58:13;16.08;;;15.27;;
20179;SDS011;10249;48.900;9.090;2023-09-08T12:00:40;15.93;;;15.13;;
20179;SDS011;10249;48.900;9.090;2023-09-08T12:03:12;15.88;;;14.98;;
20179;SDS011;10249;48.900;9.090;2023-09-08T12:05:40;16.27;;;15.38;;
20179;SDS011;10249;48.900;9.090;2023-09-08T12:08:07;16.30;;;15.40;;
20179;SDS011;10249;48.900;9.090;2023-09-08T12:10:38;16.13;;;15.23;;
20179;SDS011;10249;48.900;9.090;2023-09-08T12:13:05;16.25;;;15.35;;
20179;SDS011;10249;48.900;9.090;2023-09-08T12:15:32;16.30;;;15.40;;
20179;SDS011;10249;48.900;9.090;2023-09-08T12:18:00;16.27;;;15.45;;
20179;SDS011;10249;48.900;9.090;2023-09-08T12:20:29;16.05;;;15.15;;
20179;SDS011;10249;48.900;9.090;2023-09-08T12:22:57;15.85;;;15.05;;
20179;SDS011;10249;48.900;9.090;2023-09-08T12:25:24;15.90;;;15.10;;
20179;SDS011;10249;48.900;9.090;2023-09-08T12:27:53;16.40;;;15.50;;
20179;SDS011;10249;48.900;9.090;2023-09-08T12:30:21;16.02;;;15.18;;
20179;SDS011;10249;48.900;9.090;2023-09-08T12:32:55;16.13;;;15.23;;
20179;SDS011;10249;48.900;9.090;2023-09-08T12:35:22;15.93;;;15.13;;
20179;SDS011;10249;48.900;9.090;2023-09-08T12:37:53;16.08;;;15.23;;
20179;SDS011;10249;48.900;9.090;2023-09-08T12:40:20;16.23;;;15.35;;
20179;SDS011;10249;48.900;9.090;2023-09-08T12:42:48;15.93;;;15.13;;
20179;SDS011;10249;48.900;9.090;2023-09-08T12:45:15;16.10;;;15.23;;
20179;SDS011;10249;48.900;9.090;2023-09-08T12:47:42;16.23;;;15.35;;
20179;SDS011;10249;48.900;9.090;2023-09-08T12:50:09;16.23;;;15.32;;
20179;SDS011;10249;48.900;9.090;2023-09-08T12:52:38;15.77;;;14.98;;
20179;SDS011;10249;48.900;9.090;2023-09-08T12:55:06;15.73;;;14.93;;
20179;SDS011;10249;48.900;9.090;2023-09-08T12:57:34;15.80;;;15.00;;
20179;SDS011;10249;48.900;9.090;2023-09-08T13:00:01;15.73;;;14.93;;
20179;SDS011;10249;48.900;9.090;2023-09-08T13:02:29;15.75;;;14.93;;
20179;SDS011;10249;48.900;9.090;2023-09-08T13:04:56;15.63;;;14.82;;
20179;SDS011;10249;48.900;9.090;2023-09-08T13:07:23;15.82;;;15.02;;
20179;SDS011;10249;48.900;9.090;2023-09-08T13:09:51;15.90;;;15.10;;
20179;SDS011;10249;48.900;9.090;2023-09-08T13:12:19;16.00;;;15.20;;
20179;SDS011;10249;48.900;9.090;2023-09-08T13:14:46;16.08;;;15.27;;
20179;SDS011;10249;48.900;9.090;2023-09-08T13:17:14;16.00;;;15.20;;
20179;SDS011;10249;48.900;9.090;2023-09-08T13:19:41;15.75;;;14.95;;
20179;SDS011;10249;48.900;9.090;2023-09-08T13:22:08;16.10;;;15.30;;
20179;SDS011;10249;48.900;9.090;2023-09-08T13:24:35;16.35;;;15.50;;
20179;SDS011;10249;48.900;9.090;2023-09-08T13:27:03;15.82;;;15.02;;
20179;SDS011;10249;48.900;9.090;2023-09-08T13:29:31;15.95;;;15.15;;
20179;SDS011;10249;48.900;9.090;2023-09-08T13:31:59;15.75;;;14.95;;
20179;SDS011;10249;48.900;9.090;2023-09-08T13:34:26;15.48;;;14.68;;
20179;SDS011;10249;48.900;9.090;2023-09-08T13:36:53;15.75;;;14.95;;
20179;SDS011;10249;48.900;9.090;2023-09-08T13:39:20;15.52;;;14.73;;
20179;SDS011;10249;48.900;9.090;2023-09-08T13:41:47;15.65;;;14.85;;
20179;SDS011;10249;48.900;9.090;2023-09-08T13:44:15;15.75;;;14.95;;
20179;SDS011;10249;48.900;9.090;2023-09-08T13:46:45;15.70;;;14.90;;
20179;SDS011;10249;48.900;9.090;2023-09-08T13:49:12;16.05;;;15.25;;
20179;SDS011;10249;48.900;9.090;2023-09-08T13:51:39;16.40;;;15.50;;
20179;SDS011;10249;48.900;9.090;2023-09-08T13:54:06;15.93;;;15.13;;
20179;SDS011;10249;48.900;9.090;2023-09-08T13:56:33;16.23;;;15.43;;
20179;SDS011;10249;48.900;9.090;2023-09-08T13:59:01;16.10;;;15.30;;
20179;SDS011;10249;48.900;9.090;2023-09-08T14:01:28;16.00;;;15.20;;
20179;SDS011;10249;48.900;9.090;2023-09-08T14:03:58;15.93;;;15.13;;
20179;SDS011;10249;48.900;9.090;2023-09-08T14:06:25;15.80;;;15.00;;
20179;SDS011;10249;48.900;9.090;2023-09-08T14:08:52;15.65;;;14.85;;
20179;SDS011;10249;48.900;9.090;2023-09-08T14:11:20;15.95;;;15.15;;
20179;SDS011;10249;48.900;9.090;2023-09-08T14:13:47;16.02;;;15.23;;
20179;SDS011;10249;48.900;9.090;2023-09-08T14:16:15;16.38;;;15.57;;
20179;SDS011;10249;48.900;9.090;2023-09-08T14:18:42;16.33;;;15.52;;
20179;SDS011;10249;48.900;9.090;2023-09-08T14:21:10;15.45;;;14.65;;
20179;SDS011;10249;48.900;9.090;2023-09-08T14:23:37;16.13;;;15.32;;
20179;SDS011;10249;48.900;9.090;2023-09-08T14:26:05;15.65;;;14.85;;
20179;SDS011;10249;48.900;9.090;2023-09-08T14:28:32;15.50;;;14.80;;
20179;SDS011;10249;48.900;9.090;2023-09-08T14:31:00;15.32;;;14.63;;